Time;durP1;ratioP1;P1;durP2;ratioP2;P2;SDS_P1;SDS_P2;PMS_P1;PMS_P2;Temp;Humidity;BMP_temperature;BMP_pressure;BME280_temperature;BME280_humidity;BME280_pressure;Samples;Min_cycle;Max_cycle;Signal;HPM_P1;HPM_P2
2021/10/30 00:01:26;;;;;;;76.43;40.95;;;;;;;4.63;84.03;101050.50;5028652;28;20033;-63
2021/10/30 00:03:52;;;;;;;81.15;42.95;;;;;;;4.64;83.55;101061.97;5022782;28;20124;-63
2021/10/30 00:06:18;;;;;;;78.15;42.08;;;;;;;4.65;83.78;101061.88;5029675;28;20025;-63
2021/10/30 00:08:44;;;;;;;74.32;40.42;;;;;;;4.61;83.83;101054.16;5029675;28;20037;-63
2021/10/30 00:11:09;;;;;;;73.97;41.55;;;;;;;4.61;83.79;101055.03;5029485;28;20038;-63
2021/10/30 00:13:35;;;;;;;73.90;41.13;;;;;;;4.60;83.69;101052.44;5029306;28;20457;-62
2021/10/30 00:16:01;;;;;;;78.10;41.92;;;;;;;4.60;83.54;101052.44;5029515;28;20029;-63
2021/10/30 00:18:27;;;;;;;73.68;40.45;;;;;;;4.60;84.05;101049.78;5025137;28;20021;-63
2021/10/30 00:20:53;;;;;;;80.88;42.22;;;;;;;4.57;84.50;101050.81;5029261;28;20100;-63
2021/10/30 00:23:19;;;;;;;70.65;40.05;;;;;;;4.59;84.91;101051.56;5029268;28;20572;-63
2021/10/30 00:25:44;;;;;;;69.70;40.55;;;;;;;4.59;85.16;101053.38;5029392;28;20075;-63
2021/10/30 00:28:10;;;;;;;73.95;40.00;;;;;;;4.53;84.76;101048.38;5029083;28;20026;-63
2021/10/30 00:30:36;;;;;;;71.55;40.70;;;;;;;4.55;84.67;101050.03;5026465;28;20033;-64
2021/10/30 00:33:01;;;;;;;70.90;40.67;;;;;;;4.47;84.66;101052.22;5029141;28;20171;-63
2021/10/30 00:35:27;;;;;;;73.80;39.70;;;;;;;4.47;84.87;101051.34;5028726;28;20021;-63
2021/10/30 00:37:53;;;;;;;76.10;42.22;;;;;;;4.44;85.11;101052.38;5029397;28;20047;-63
2021/10/30 00:40:18;;;;;;;70.43;39.22;;;;;;;4.45;85.16;101050.59;5028904;28;20104;-64
2021/10/30 00:42:44;;;;;;;72.07;40.17;;;;;;;4.41;85.56;101051.66;5026736;28;20041;-63
2021/10/30 00:45:10;;;;;;;65.55;38.38;;;;;;;4.37;85.33;101045.66;5028871;28;21484;-67
2021/10/30 00:47:35;;;;;;;69.15;39.88;;;;;;;4.39;85.02;101048.25;5028875;28;20049;-63
2021/10/30 00:50:03;;;;;;;66.60;39.83;;;;;;;4.42;84.70;101056.06;5028716;28;20121;-64
2021/10/30 00:52:29;;;;;;;66.93;38.97;;;;;;;4.34;84.94;101039.66;5028568;28;20033;-64
2021/10/30 00:54:58;;;;;;;67.03;37.35;;;;;;;4.36;84.96;101051.91;5028716;28;20033;-63
2021/10/30 00:57:25;;;;;;;73.50;38.45;;;;;;;4.31;84.96;101040.66;5016195;28;20025;-64
2021/10/30 00:59:52;;;;;;;71.25;37.42;;;;;;;4.37;85.20;101047.47;5023202;28;20467;-64
2021/10/30 01:02:18;;;;;;;69.97;39.45;;;;;;;4.31;84.77;101040.66;5028833;28;20387;-64
2021/10/30 01:04:44;;;;;;;70.80;39.20;;;;;;;4.31;85.08;101045.09;5028394;28;20037;-64
2021/10/30 01:07:10;;;;;;;66.55;40.67;;;;;;;4.31;84.87;101050.41;5028770;28;20652;-64
2021/10/30 01:09:36;;;;;;;73.03;38.58;;;;;;;4.28;84.94;101050.56;5028330;28;20079;-64
2021/10/30 01:12:01;;;;;;;66.97;38.50;;;;;;;4.27;85.11;101044.41;5028293;28;20399;-64
2021/10/30 01:14:28;;;;;;;66.32;39.20;;;;;;;4.24;85.49;101043.69;5028339;28;20033;-64
2021/10/30 01:16:58;;;;;;;73.47;39.65;;;;;;;4.23;85.96;101042.00;5028317;28;20104;-64
2021/10/30 01:19:24;;;;;;;70.75;42.33;;;;;;;4.24;86.12;101051.66;5028250;28;20073;-64
2021/10/30 01:21:50;;;;;;;68.15;39.05;;;;;;;4.21;86.30;101042.06;5028508;28;20048;-64
2021/10/30 01:24:15;;;;;;;61.97;38.92;;;;;;;4.13;86.46;101030.13;5028235;28;20033;-64
2021/10/30 01:26:41;;;;;;;69.60;40.85;;;;;;;4.16;86.18;101035.28;5028227;28;20033;-64
2021/10/30 01:29:06;;;;;;;68.72;40.40;;;;;;;4.15;86.05;101039.72;5028127;28;20498;-64
2021/10/30 01:31:32;;;;;;;70.75;39.85;;;;;;;4.11;86.47;101032.84;5017665;28;20034;-64
2021/10/30 01:34:02;;;;;;;70.53;38.75;;;;;;;4.06;86.53;101010.09;5022849;28;20032;-64
2021/10/30 01:36:28;;;;;;;79.93;40.58;;;;;;;4.08;86.88;101021.50;5028203;28;20036;-64
2021/10/30 01:38:53;;;;;;;70.32;39.90;;;;;;;4.04;86.81;101015.53;5028170;28;20018;-63
2021/10/30 01:41:24;;;;;;;62.40;37.88;;;;;;;4.06;86.69;101029.56;5028395;28;20506;-64
2021/10/30 01:43:50;;;;;;;67.47;39.15;;;;;;;4.00;86.71;101018.41;5028199;28;20070;-64
2021/10/30 01:46:17;;;;;;;68.68;38.30;;;;;;;4.04;86.51;101022.63;5028017;28;20033;-64
2021/10/30 01:48:43;;;;;;;68.75;39.08;;;;;;;4.02;86.43;101017.38;5018722;28;20460;-64
2021/10/30 01:51:09;;;;;;;67.25;38.03;;;;;;;4.01;86.45;101018.31;5028034;28;20091;-64
2021/10/30 01:53:35;;;;;;;65.03;38.15;;;;;;;3.96;86.32;101008.84;5027857;28;20021;-64
2021/10/30 01:56:01;;;;;;;67.72;36.92;;;;;;;3.99;86.17;101019.31;5028150;28;20028;-64
2021/10/30 01:58:26;;;;;;;63.88;37.55;;;;;;;3.91;86.04;101005.59;5027898;28;20021;-64
2021/10/30 02:00:54;;;;;;;67.68;37.53;;;;;;;3.96;86.35;101008.84;5026735;28;20042;-64
2021/10/30 02:03:23;;;;;;;64.30;38.55;;;;;;;3.97;86.54;101015.91;5014163;28;20056;-64
2021/10/30 02:05:49;;;;;;;71.30;38.25;;;;;;;3.96;86.39;101016.81;5020728;28;20030;-64
2021/10/30 02:08:14;;;;;;;66.05;38.30;;;;;;;3.96;86.60;101020.34;5016392;28;20026;-64
2021/10/30 02:10:40;;;;;;;67.50;37.90;;;;;;;3.98;86.26;101017.59;5017184;28;20079;-64
2021/10/30 02:13:05;;;;;;;64.13;38.08;;;;;;;3.91;86.38;101002.94;5022056;28;20046;-64
2021/10/30 02:15:32;;;;;;;63.83;37.13;;;;;;;3.97;86.03;101013.25;5021448;28;20029;-64
2021/10/30 02:17:57;;;;;;;63.47;37.25;;;;;;;3.96;86.26;101008.84;5030718;28;20063;-63
2021/10/30 02:20:23;;;;;;;60.78;36.63;;;;;;;3.95;86.12;101013.31;5031497;28;20050;-64
2021/10/30 02:22:52;;;;;;;66.68;35.33;;;;;;;3.94;86.44;101013.41;5031692;28;20468;-64
2021/10/30 02:25:17;;;;;;;67.78;37.60;;;;;;;3.94;86.74;101018.69;5031570;28;20052;-65
2021/10/30 02:27:43;;;;;;;65.78;35.28;;;;;;;3.92;86.30;101016.13;5031012;28;20134;-64
2021/10/30 02:30:09;;;;;;;59.05;34.92;;;;;;;3.88;86.51;101008.38;5031547;28;20033;-64
2021/10/30 02:32:34;;;;;;;58.70;35.50;;;;;;;3.92;86.79;101012.59;5031970;28;20124;-64
2021/10/30 02:35:00;;;;;;;59.30;34.80;;;;;;;3.92;87.08;101015.25;5030728;28;20040;-63
2021/10/30 02:37:25;;;;;;;54.75;33.75;;;;;;;3.92;87.22;101012.59;5031710;28;20037;-64
2021/10/30 02:39:51;;;;;;;55.45;34.92;;;;;;;3.92;87.74;101012.59;5032055;28;20014;-64
2021/10/30 02:42:17;;;;;;;60.65;35.80;;;;;;;3.81;87.85;100986.59;5031693;28;20042;-63
2021/10/30 02:44:42;;;;;;;54.95;33.38;;;;;;;3.94;88.16;101010.75;5031459;28;20479;-64
2021/10/30 02:47:07;;;;;;;57.90;34.55;;;;;;;3.94;88.26;101008.09;5030305;28;20060;-64
2021/10/30 02:49:33;;;;;;;57.40;34.47;;;;;;;3.95;88.15;101015.09;5031625;28;20115;-64
2021/10/30 02:51:59;;;;;;;57.15;33.35;;;;;;;3.95;87.89;101015.09;5031658;28;20025;-64
2021/10/30 02:54:25;;;;;;;60.00;34.85;;;;;;;3.84;87.61;100998.88;5031481;28;20021;-64
2021/10/30 02:56:51;;;;;;;54.92;34.08;;;;;;;3.96;87.35;101015.03;5031351;28;20036;-64
2021/10/30 02:59:16;;;;;;;53.67;31.85;;;;;;;3.88;87.70;101008.38;5028748;28;20033;-64
2021/10/30 03:01:42;;;;;;;54.50;32.70;;;;;;;3.93;87.60;101012.53;5029034;28;20466;-64
2021/10/30 03:04:07;;;;;;;56.78;33.75;;;;;;;3.91;87.78;101006.44;5026240;28;20036;-64
2021/10/30 03:06:33;;;;;;;55.47;32.58;;;;;;;3.88;88.00;101003.06;5029286;28;20029;-63
2021/10/30 03:08:59;;;;;;;59.15;33.03;;;;;;;3.88;87.91;101000.44;5029554;28;20506;-63
2021/10/30 03:11:25;;;;;;;57.58;33.75;;;;;;;3.91;88.55;101011.75;5031307;28;20478;-63
2021/10/30 03:13:50;;;;;;;57.80;32.03;;;;;;;3.92;88.61;101010.81;5026622;28;20037;-64
2021/10/30 03:16:16;;;;;;;52.83;32.13;;;;;;;3.89;88.65;101008.31;5030916;28;20033;-63
2021/10/30 03:18:41;;;;;;;54.28;32.33;;;;;;;3.92;88.60;101013.47;5030736;28;20072;-64
2021/10/30 03:21:07;;;;;;;52.97;32.70;;;;;;;3.92;88.46;101016.13;5030838;28;20021;-64
2021/10/30 03:23:32;;;;;;;52.38;33.13;;;;;;;3.88;88.93;101019.88;5029430;28;20490;-63
2021/10/30 03:25:58;;;;;;;55.08;32.95;;;;;;;3.92;89.06;101031.16;5030843;28;20761;-63
2021/10/30 03:28:23;;;;;;;57.03;32.90;;;;;;;3.92;89.43;101028.50;5029679;28;20032;-63
2021/10/30 03:30:49;;;;;;;53.35;33.45;;;;;;;3.89;89.36;101029.53;5023143;28;20017;-63
2021/10/30 03:33:14;;;;;;;54.33;33.47;;;;;;;3.91;89.67;101025.03;5030933;28;20033;-63
2021/10/30 03:35:40;;;;;;;54.85;33.95;;;;;;;3.89;89.74;101023.34;5029443;28;20467;-64
2021/10/30 03:38:06;;;;;;;62.15;35.78;;;;;;;3.91;89.62;101029.47;5030573;28;20510;-64
2021/10/30 03:40:31;;;;;;;60.67;35.97;;;;;;;3.86;90.08;101026.16;5029675;28;20132;-63
2021/10/30 03:42:57;;;;;;;61.55;35.38;;;;;;;3.82;90.15;101012.22;5029960;28;20060;-64
2021/10/30 03:45:22;;;;;;;57.65;36.13;;;;;;;3.85;90.32;101024.44;5027613;28;20115;-63
2021/10/30 03:47:48;;;;;;;56.28;33.15;;;;;;;3.85;89.82;101020.03;5025405;28;20030;-64
2021/10/30 03:50:13;;;;;;;62.53;36.72;;;;;;;3.85;89.91;101027.97;5026469;28;20040;-64
2021/10/30 03:52:39;;;;;;;60.15;34.17;;;;;;;3.84;89.92;101017.44;5028924;28;20029;-64
2021/10/30 03:55:06;;;;;;;62.72;34.78;;;;;;;3.83;90.02;101024.53;5029502;28;20430;-63
2021/10/30 03:57:31;;;;;;;58.67;33.00;;;;;;;3.77;90.13;101019.53;5029078;28;20065;-63
2021/10/30 03:59:57;;;;;;;63.92;35.00;;;;;;;3.79;90.37;101025.63;5029441;28;20494;-63
2021/10/30 04:02:22;;;;;;;57.78;33.85;;;;;;;3.80;90.96;101021.16;5029142;28;20028;-64
2021/10/30 04:04:48;;;;;;;57.10;34.05;;;;;;;3.80;90.90;101018.50;5028940;28;20068;-64
2021/10/30 04:07:13;;;;;;;55.38;34.17;;;;;;;3.77;90.94;101013.38;5029236;28;20029;-64
2021/10/30 04:09:39;;;;;;;53.10;33.00;;;;;;;3.78;90.44;101021.22;5028968;28;20025;-64
2021/10/30 04:12:05;;;;;;;58.33;31.25;;;;;;;3.67;89.89;101006.78;5027554;28;20483;-64
2021/10/30 04:14:31;;;;;;;56.42;33.53;;;;;;;3.68;89.94;100998.75;5028910;28;20034;-64
2021/10/30 04:16:56;;;;;;;58.63;33.25;;;;;;;3.77;89.82;101010.72;5029271;28;20362;-64
2021/10/30 04:19:21;;;;;;;55.90;32.35;;;;;;;3.74;89.83;101019.66;5028704;28;20041;-64
2021/10/30 04:21:47;;;;;;;57.65;33.83;;;;;;;3.70;89.89;101026.06;5026240;28;20025;-63
2021/10/30 04:24:13;;;;;;;56.10;33.22;;;;;;;3.66;89.67;101018.31;5027523;28;20028;-64
2021/10/30 04:26:39;;;;;;;61.65;34.17;;;;;;;3.61;89.87;101007.09;5028557;28;20372;-64
2021/10/30 04:29:05;;;;;;;64.55;33.55;;;;;;;3.70;90.21;101027.84;5028659;28;20032;-63
2021/10/30 04:31:31;;;;;;;52.25;31.55;;;;;;;3.67;90.05;101020.03;5028886;28;20029;-63
2021/10/30 04:34:00;;;;;;;58.30;33.60;;;;;;;3.68;90.04;101019.97;5028899;28;20372;-64
2021/10/30 04:36:28;;;;;;;59.15;34.55;;;;;;;3.65;90.53;101022.75;5021061;28;20044;-63
2021/10/30 04:38:54;;;;;;;57.35;33.40;;;;;;;3.64;90.34;101017.56;5020361;28;20083;-64
2021/10/30 04:41:19;;;;;;;56.90;32.58;;;;;;;3.65;90.29;101021.91;5026720;28;20372;-69
2021/10/30 04:43:46;;;;;;;57.17;32.65;;;;;;;3.66;90.75;101020.97;5028254;28;20034;-68
2021/10/30 04:46:18;;;;;;;56.97;32.88;;;;;;;3.68;91.92;101012.00;5027234;28;20506;-69
2021/10/30 04:48:44;;;;;;;49.60;31.40;;;;;;;3.67;93.35;100993.50;5028118;28;20045;-69
2021/10/30 04:51:09;;;;;;;56.03;31.55;;;;;;;3.76;94.35;101009.84;5028543;28;20040;-69
2021/10/30 04:53:37;;;;;;;60.47;31.02;;;;;;;3.87;94.84;101015.47;5026717;28;20479;-69
2021/10/30 04:56:03;;;;;;;49.17;30.80;;;;;;;3.96;95.59;101011.50;5028151;28;20475;-69
2021/10/30 04:58:29;;;;;;;49.13;29.13;;;;;;;4.04;95.75;101006.69;5027025;28;20037;-69
2021/10/30 05:00:55;;;;;;;51.90;30.42;;;;;;;4.09;95.90;101009.94;5028217;28;20041;-69
2021/10/30 05:03:21;;;;;;;49.40;30.25;;;;;;;4.17;95.99;101026.38;5023168;28;20374;-69
2021/10/30 05:05:47;;;;;;;51.10;30.27;;;;;;;4.18;95.78;101010.38;5028457;28;20147;-69
2021/10/30 05:08:12;;;;;;;52.55;28.90;;;;;;;4.24;95.76;101011.84;5027873;28;20045;-69
2021/10/30 05:10:38;;;;;;;51.03;30.23;;;;;;;4.29;95.77;101028.41;5022795;28;20384;-69
2021/10/30 05:13:03;;;;;;;51.42;30.80;;;;;;;4.35;95.89;101009.47;5020255;28;20100;-69
2021/10/30 05:15:29;;;;;;;47.53;29.95;;;;;;;4.39;95.96;101001.28;5028491;28;20032;-69
2021/10/30 05:17:54;;;;;;;49.80;30.13;;;;;;;4.42;95.95;101002.94;5028347;28;20086;-69
2021/10/30 05:20:20;;;;;;;49.45;30.25;;;;;;;4.48;96.09;101014.09;5026806;28;20057;-69
2021/10/30 05:22:45;;;;;;;52.20;30.75;;;;;;;4.48;95.84;100999.94;5027997;28;20143;-69
2021/10/30 05:25:11;;;;;;;53.30;31.08;;;;;;;4.56;95.95;101003.94;5017679;28;20037;-69
2021/10/30 05:27:36;;;;;;;52.20;30.92;;;;;;;4.49;95.67;100985.75;5018163;28;20021;-69
2021/10/30 05:30:02;;;;;;;52.05;32.53;;;;;;;4.58;95.66;101001.22;5028061;28;20463;-69
2021/10/30 05:32:28;;;;;;;51.55;31.05;;;;;;;4.59;95.06;101014.38;5028113;28;20391;-69
2021/10/30 05:34:53;;;;;;;48.65;30.90;;;;;;;4.66;95.00;101014.94;5026483;28;20025;-69
2021/10/30 05:37:18;;;;;;;51.92;32.28;;;;;;;4.64;95.02;101011.50;5025284;28;20029;-69
2021/10/30 05:39:44;;;;;;;52.17;30.17;;;;;;;4.67;94.95;101006.88;5027752;28;20036;-69
2021/10/30 05:42:10;;;;;;;53.60;31.70;;;;;;;4.70;94.92;101012.03;5026433;28;20034;-69
2021/10/30 05:44:37;;;;;;;53.95;32.53;;;;;;;4.72;94.90;101009.31;5016803;28;20059;-69
2021/10/30 05:47:04;;;;;;;56.65;32.08;;;;;;;4.76;95.31;101013.50;5020790;28;20049;-70
2021/10/30 05:49:30;;;;;;;55.47;32.47;;;;;;;4.75;94.81;101012.63;5023387;28;20447;-69
2021/10/30 05:51:55;;;;;;;57.25;31.85;;;;;;;4.79;95.21;101010.69;5029340;28;20037;-69
2021/10/30 05:54:21;;;;;;;57.25;32.95;;;;;;;4.73;94.81;101001.25;5024037;28;20083;-69
2021/10/30 05:56:46;;;;;;;58.45;32.65;;;;;;;4.82;95.03;101010.53;5026473;28;20047;-69
2021/10/30 05:59:12;;;;;;;57.08;33.97;;;;;;;4.85;95.29;101015.69;5029388;28;20017;-69
2021/10/30 06:01:39;;;;;;;53.58;34.17;;;;;;;4.94;95.51;101015.19;5031704;28;20025;-69
2021/10/30 06:04:04;;;;;;;56.38;32.95;;;;;;;5.00;95.60;101014.84;5024227;28;20022;-69
2021/10/30 06:06:30;;;;;;;58.38;33.70;;;;;;;5.03;95.52;101013.84;5031519;28;20103;-69
2021/10/30 06:08:55;;;;;;;60.20;33.38;;;;;;;5.10;95.64;101032.03;5026404;28;20056;-69
2021/10/30 06:11:20;;;;;;;56.47;33.83;;;;;;;5.14;95.47;101020.28;5024175;28;20100;-69
2021/10/30 06:13:46;;;;;;;52.72;34.05;;;;;;;5.17;95.61;101003.31;5028680;28;20056;-70
2021/10/30 06:16:11;;;;;;;56.53;33.55;;;;;;;5.24;95.44;101012.66;5027550;28;20084;-68
2021/10/30 06:18:37;;;;;;;49.30;32.42;;;;;;;5.31;95.23;101020.22;5030043;28;20045;-70
2021/10/30 06:21:02;;;;;;;55.97;33.08;;;;;;;5.36;95.31;101023.50;5023770;28;20049;-69
2021/10/30 06:23:28;;;;;;;54.25;32.75;;;;;;;5.44;95.68;101029.25;5016891;28;20563;-69
2021/10/30 06:25:54;;;;;;;60.58;33.92;;;;;;;5.51;95.71;101021.78;5025571;28;20049;-69
2021/10/30 06:28:20;;;;;;;51.95;31.20;;;;;;;5.58;95.43;101021.34;5025073;28;20387;-69
2021/10/30 06:30:46;;;;;;;52.00;31.38;;;;;;;5.68;95.61;101025.19;5029572;28;20025;-70
2021/10/30 06:33:11;;;;;;;51.22;31.88;;;;;;;5.77;95.43;101034.47;5031191;28;20025;-69
2021/10/30 06:35:37;;;;;;;56.65;34.38;;;;;;;5.89;95.64;101034.66;5028411;28;20030;-70
2021/10/30 06:38:02;;;;;;;52.92;32.03;;;;;;;5.94;95.59;101043.22;5030822;28;20032;-69
2021/10/30 06:40:28;;;;;;;51.85;30.65;;;;;;;6.08;95.32;101051.31;5031160;28;20024;-69
2021/10/30 06:42:54;;;;;;;51.13;31.38;;;;;;;6.15;95.68;101047.34;5030720;28;20030;-69
2021/10/30 06:45:19;;;;;;;46.70;32.10;;;;;;;6.22;95.20;101048.69;5030788;28;20071;-69
2021/10/30 06:47:45;;;;;;;50.65;31.27;;;;;;;6.36;94.99;101045.22;5030682;28;20017;-69
2021/10/30 06:50:20;;;;;;;53.83;32.17;;;;;;;6.46;94.25;101052.59;5030939;28;20056;-69
2021/10/30 06:52:45;;;;;;;51.15;31.48;;;;;;;6.56;94.32;101043.09;5029257;28;20026;-69
2021/10/30 06:55:11;;;;;;;51.22;31.30;;;;;;;6.67;94.18;101053.09;5030828;28;20025;-69
2021/10/30 06:57:37;;;;;;;52.33;31.15;;;;;;;6.78;93.83;101050.66;5030526;28;20037;-69
2021/10/30 07:00:06;;;;;;;51.13;30.60;;;;;;;6.90;93.71;101057.88;5030558;28;20311;-69
2021/10/30 07:02:32;;;;;;;49.92;31.55;;;;;;;7.02;93.62;101051.81;5025228;28;20061;-69
2021/10/30 07:04:59;;;;;;;51.92;32.53;;;;;;;7.15;93.18;101057.25;5030477;28;20069;-69
2021/10/30 07:07:25;;;;;;;44.90;30.23;;;;;;;7.27;93.03;101060.00;5030441;28;20036;-69
2021/10/30 07:09:54;;;;;;;46.60;29.38;;;;;;;7.34;92.24;101045.34;5030216;28;20037;-69
2021/10/30 07:12:20;;;;;;;41.40;27.85;;;;;;;7.46;91.95;101046.38;5030373;28;20032;-69
2021/10/30 07:14:46;;;;;;;53.72;30.38;;;;;;;7.65;92.09;101057.59;5030222;28;20029;-69
2021/10/30 07:17:11;;;;;;;43.35;28.98;;;;;;;7.77;91.04;101067.50;5030541;28;20029;-69
2021/10/30 07:19:36;;;;;;;44.38;28.45;;;;;;;7.85;91.17;101058.03;5028586;28;20049;-69
2021/10/30 07:22:02;;;;;;;41.25;27.30;;;;;;;8.03;90.84;101072.00;5030031;28;20560;-70
2021/10/30 07:24:27;;;;;;;45.55;27.23;;;;;;;8.14;90.01;101062.31;5025459;28;20526;-70
2021/10/30 07:26:53;;;;;;;44.47;27.95;;;;;;;8.26;89.68;101064.19;5029885;28;20033;-70
2021/10/30 07:29:18;;;;;;;47.20;29.33;;;;;;;8.39;89.27;101067.75;5030103;28;20083;-70
2021/10/30 07:31:43;;;;;;;42.03;27.23;;;;;;;8.50;88.21;101059.91;5029814;28;20045;-70
2021/10/30 07:34:09;;;;;;;50.13;29.45;;;;;;;8.62;88.14;101058.19;5028304;28;20086;-70
2021/10/30 07:36:34;;;;;;;41.72;27.08;;;;;;;8.75;87.59;101062.63;5029377;28;20454;-69
2021/10/30 07:39:00;;;;;;;44.45;27.40;;;;;;;8.87;86.55;101061.75;5029909;28;20032;-70
2021/10/30 07:41:25;;;;;;;49.42;29.17;;;;;;;8.99;86.26;101057.38;5029659;28;20025;-70
2021/10/30 07:43:54;;;;;;;46.75;28.02;;;;;;;9.11;85.88;101059.19;5023103;28;20038;-70
2021/10/30 07:46:23;;;;;;;42.00;27.35;;;;;;;9.15;85.47;101042.81;5023907;28;20120;-70
2021/10/30 07:48:51;;;;;;;43.92;27.98;;;;;;;9.32;84.81;101048.81;5029195;28;20482;-70
2021/10/30 07:51:16;;;;;;;38.65;26.88;;;;;;;9.45;84.63;101055.00;5029567;28;20018;-69
2021/10/30 07:53:42;;;;;;;42.05;28.08;;;;;;;9.45;84.90;101037.13;5021765;28;20408;-70
2021/10/30 07:56:07;;;;;;;42.40;27.67;;;;;;;9.62;84.05;101042.13;5030103;28;20499;-70
2021/10/30 07:58:33;;;;;;;41.40;27.95;;;;;;;9.74;83.23;101051.91;5028042;28;20037;-69
2021/10/30 08:00:58;;;;;;;43.05;27.55;;;;;;;9.82;82.94;101057.59;5021965;28;20117;-70
2021/10/30 08:03:24;;;;;;;42.97;28.40;;;;;;;9.89;82.65;101049.94;5029091;28;20028;-70
2021/10/30 08:05:50;;;;;;;41.55;28.40;;;;;;;9.94;82.23;101054.03;5029047;28;20406;-70
2021/10/30 08:08:15;;;;;;;46.67;28.08;;;;;;;9.97;81.94;101045.75;5029147;28;20029;-70
2021/10/30 08:10:41;;;;;;;43.05;27.33;;;;;;;10.11;81.27;101050.97;5029424;28;20100;-70
2021/10/30 08:13:10;;;;;;;41.78;26.83;;;;;;;10.21;80.64;101041.28;5028986;28;20065;-69
2021/10/30 08:15:37;;;;;;;39.40;25.67;;;;;;;10.27;80.61;101039.94;5020722;28;20423;-69
2021/10/30 08:18:03;;;;;;;43.42;28.27;;;;;;;10.34;80.11;101047.44;5027609;28;20014;-69
2021/10/30 08:20:28;;;;;;;44.33;27.40;;;;;;;10.41;79.53;101037.06;5027776;28;20056;-70
2021/10/30 08:22:53;;;;;;;38.58;26.15;;;;;;;10.47;79.17;101041.97;5029060;28;20029;-69
2021/10/30 08:25:20;;;;;;;43.95;28.02;;;;;;;10.54;78.56;101037.84;5028915;28;20475;-68
2021/10/30 08:27:45;;;;;;;37.70;26.23;;;;;;;10.66;77.88;101042.28;5028493;28;20029;-69
2021/10/30 08:30:11;;;;;;;39.00;26.90;;;;;;;10.65;77.43;101028.03;5026781;28;20101;-69
2021/10/30 08:32:36;;;;;;;42.28;26.52;;;;;;;10.79;77.08;101018.91;5028487;28;20029;-69
2021/10/30 08:35:03;;;;;;;37.00;26.58;;;;;;;10.81;77.09;101025.84;5028754;28;20076;-68
2021/10/30 08:37:28;;;;;;;42.60;26.90;;;;;;;10.91;77.10;101029.56;5028779;28;20075;-69
2021/10/30 08:39:54;;;;;;;37.75;27.20;;;;;;;10.98;76.44;101021.88;5023394;28;20118;-69
2021/10/30 08:42:22;;;;;;;44.63;27.83;;;;;;;11.06;76.80;101031.03;5028425;28;20060;-69
2021/10/30 08:44:49;;;;;;;38.13;25.95;;;;;;;11.10;75.82;101029.81;5027178;28;20040;-69
2021/10/30 08:47:17;;;;;;;39.38;25.23;;;;;;;11.18;75.91;101034.59;5028421;28;20159;-69
2021/10/30 08:49:43;;;;;;;39.95;24.77;;;;;;;11.16;75.89;101026.63;5028081;28;20032;-69
2021/10/30 08:52:09;;;;;;;37.55;24.92;;;;;;;11.32;75.51;101032.50;5028445;28;20467;-69
2021/10/30 08:54:36;;;;;;;35.88;24.67;;;;;;;11.39;74.81;101030.22;5028375;28;20470;-69
2021/10/30 08:57:01;;;;;;;36.60;24.67;;;;;;;11.51;75.44;101031.88;5028553;28;20061;-70
2021/10/30 08:59:43;;;;;;;33.83;24.67;;;;;;;11.57;75.29;101034.09;5028254;28;20102;-70
2021/10/30 09:02:28;;;;;;;35.95;23.63;;;;;;;11.65;74.72;101023.63;5028323;28;20066;-69
2021/10/30 09:05:07;;;;;;;;;;;;;;;11.79;74.44;101027.84;5027097;28;20022;-69
2021/10/30 09:07:36;;;;;;;33.35;22.13;;;;;;;11.89;73.63;101021.59;5043712;28;19963;-69
2021/10/30 09:10:17;;;;;;;31.27;21.83;;;;;;;11.98;73.57;101018.16;5026688;28;20056;-62
2021/10/30 09:12:55;;;;;;;33.47;23.55;;;;;;;12.07;73.14;101009.34;5026519;28;20033;-62
2021/10/30 09:15:37;;;;;;;35.50;23.13;;;;;;;12.15;72.59;101011.41;5028023;28;20033;-62
2021/10/30 09:18:20;;;;;;;33.85;24.05;;;;;;;12.26;72.07;101016.72;5026746;28;20024;-63
2021/10/30 09:20:48;;;;;;;34.38;23.30;;;;;;;12.34;71.51;101008.84;5026426;28;20045;-62
2021/10/30 09:23:17;;;;;;;35.47;22.92;;;;;;;12.42;71.12;100999.19;5027863;28;20080;-63
2021/10/30 09:26:09;;;;;;;27.65;20.42;;;;;;;12.56;70.48;100987.22;5027276;28;20049;-62
2021/10/30 09:28:49;;;;;;;37.90;22.58;;;;;;;12.76;69.65;101003.38;5027984;28;20041;-63
2021/10/30 09:31:17;;;;;;;28.20;20.17;;;;;;;12.97;69.12;101003.38;5028288;28;20577;-63
2021/10/30 09:33:59;;;;;;;29.65;21.33;;;;;;;13.17;67.90;101003.38;5027889;28;20052;-63
2021/10/30 09:36:33;;;;;;;34.70;21.48;;;;;;;13.44;66.53;100994.66;5026415;28;20021;-64
2021/10/30 09:39:07;;;;;;;35.33;21.52;;;;;;;13.74;65.60;100987.38;5027445;28;20106;-64
2021/10/30 09:41:38;;;;;;;30.00;19.38;;;;;;;14.19;64.50;100982.31;5026803;28;20037;-64
2021/10/30 09:44:18;;;;;;;29.90;19.52;;;;;;;14.72;62.28;100975.53;5027853;28;20037;-63
2021/10/30 09:46:43;;;;;;;33.05;20.55;;;;;;;15.29;59.73;100978.03;5026128;28;20155;-63
2021/10/30 09:49:13;;;;;;;28.45;19.80;;;;;;;15.78;57.88;100976.81;5020366;28;20121;-63
2021/10/30 09:51:39;;;;;;;27.65;18.63;;;;;;;16.08;56.26;100972.91;5022371;28;20032;-63
2021/10/30 09:54:07;;;;;;;30.65;19.08;;;;;;;16.20;55.68;100968.97;5027697;28;20373;-63
2021/10/30 09:56:49;;;;;;;24.77;17.85;;;;;;;16.21;55.49;100970.66;5027735;28;20045;-63
2021/10/30 09:59:18;;;;;;;24.67;16.95;;;;;;;16.15;55.59;100969.44;5027619;28;20083;-63
2021/10/30 10:01:49;;;;;;;27.27;17.02;;;;;;;16.06;54.97;100969.50;5027297;28;20423;-63
2021/10/30 10:04:17;;;;;;;30.52;16.83;;;;;;;15.89;54.81;100966.63;5027389;28;20026;-61
2021/10/30 10:06:44;;;;;;;25.83;16.83;;;;;;;15.82;55.05;100980.91;5027485;28;20040;-62
2021/10/30 10:09:19;;;;;;;21.27;15.80;;;;;;;15.69;55.40;100973.19;5027372;28;20026;-62
2021/10/30 10:11:46;;;;;;;26.63;16.00;;;;;;;15.60;55.76;100967.81;5027284;28;20041;-62
2021/10/30 10:14:14;;;;;;;22.50;15.80;;;;;;;15.58;56.27;100969.84;5027574;28;20511;-63
2021/10/30 10:16:39;;;;;;;23.08;16.88;;;;;;;15.53;56.21;100951.34;5027408;28;20040;-63
2021/10/30 10:19:05;;;;;;;23.98;15.70;;;;;;;15.51;56.71;100947.94;5027157;28;20500;-63
2021/10/30 10:21:34;;;;;;;25.10;16.60;;;;;;;15.49;56.53;100947.25;5027610;28;20138;-63
2021/10/30 10:24:08;;;;;;;20.73;14.93;;;;;;;15.50;56.45;100950.78;5027317;28;20030;-63
2021/10/30 10:26:54;;;;;;;21.50;15.55;;;;;;;15.48;56.49;100933.88;5027510;28;20108;-62
2021/10/30 10:29:36;;;;;;;22.17;14.93;;;;;;;15.49;56.74;100941.00;5019405;28;20137;-63
2021/10/30 10:32:06;;;;;;;24.02;15.82;;;;;;;15.52;56.57;100940.69;5025857;28;20029;-63
2021/10/30 10:34:37;;;;;;;21.08;15.07;;;;;;;15.53;56.51;100929.72;5027503;28;20171;-64
2021/10/30 10:37:11;;;;;;;22.48;14.68;;;;;;;15.56;56.38;100932.13;5027273;28;20395;-63
2021/10/30 10:39:45;;;;;;;23.95;15.75;;;;;;;15.60;56.29;100930.81;5030675;28;20088;-63
2021/10/30 10:42:16;;;;;;;18.63;14.13;;;;;;;15.61;56.13;100924.38;5031061;28;20041;-63
2021/10/30 10:44:41;;;;;;;24.38;14.18;;;;;;;15.68;55.94;100916.53;5030896;28;20488;-64
2021/10/30 10:47:26;;;;;;;22.40;15.32;;;;;;;15.68;56.19;100914.66;5030770;28;20071;-64
2021/10/30 10:50:33;;;;;;;24.35;14.18;;;;;;;15.70;56.03;100909.09;5030746;28;20076;-63
2021/10/30 10:53:06;;;;;;;24.25;13.38;;;;;;;15.77;55.97;100915.63;5017386;28;20039;-63
2021/10/30 10:55:56;;;;;;;19.73;12.47;;;;;;;15.79;55.51;100909.06;5031251;28;20037;-63
2021/10/30 10:58:22;;;;;;;15.60;11.93;;;;;;;15.74;55.42;100895.13;5030308;28;20061;-63
2021/10/30 11:01:00;;;;;;;17.80;13.05;;;;;;;15.86;54.94;100899.31;5030178;28;20079;-64
2021/10/30 11:03:28;;;;;;;24.23;13.20;;;;;;;15.88;54.67;100902.72;5030511;28;20467;-63
2021/10/30 11:05:58;;;;;;;22.30;11.88;;;;;;;15.92;54.73;100902.41;5022474;28;20479;-63
2021/10/30 11:08:33;;;;;;;19.70;12.63;;;;;;;15.97;54.97;100891.97;5030342;28;20072;-63
2021/10/30 11:11:08;;;;;;;17.52;12.40;;;;;;;16.00;54.92;100891.66;5029831;28;20075;-64
2021/10/30 11:13:33;;;;;;;19.55;13.70;;;;;;;16.04;55.05;100885.78;5029160;28;20088;-62
2021/10/30 11:16:02;;;;;;;20.73;13.18;;;;;;;16.07;54.74;100881.91;5029806;28;20037;-64